createdAt,value
2018-12-18T00:01:32.730Z,22.90
2018-12-18T00:04:35.903Z,22.20
2018-12-18T00:07:39.090Z,21.97
2018-12-18T00:10:52.352Z,23.20
2018-12-18T00:13:55.580Z,22.30
2018-12-18T00:16:58.933Z,22.87
2018-12-18T00:20:02.093Z,21.60
2018-12-18T00:23:05.331Z,22.23
2018-12-18T00:26:08.609Z,21.07
2018-12-18T00:29:11.821Z,21.63
2018-12-18T00:32:15.096Z,21.67
2018-12-18T00:35:18.328Z,21.67
2018-12-18T00:38:21.791Z,20.60
2018-12-18T00:41:24.979Z,20.77
2018-12-18T00:44:28.228Z,20.30
2018-12-18T00:47:32.623Z,20.03
2018-12-18T00:50:37.062Z,20.53
2018-12-18T00:53:40.259Z,22.07
2018-12-18T00:56:43.550Z,20.50
2018-12-18T00:59:48.260Z,20.13
2018-12-18T01:02:51.493Z,21.93
2018-12-18T01:05:54.905Z,20.47
2018-12-18T01:08:58.150Z,19.03
2018-12-18T01:12:01.330Z,20.10
2018-12-18T01:15:05.080Z,20.20
2018-12-18T01:18:08.362Z,19.20
2018-12-18T01:21:11.750Z,18.80
2018-12-18T01:24:14.938Z,19.43
2018-12-18T01:27:18.158Z,18.87
2018-12-18T01:30:21.454Z,19.70
2018-12-18T01:33:24.629Z,20.47
2018-12-18T01:36:27.826Z,18.83
2018-12-18T01:39:30.988Z,19.93
2018-12-18T01:42:34.220Z,18.33
2018-12-18T01:45:37.557Z,19.60
2018-12-18T01:48:40.797Z,19.93
2018-12-18T01:51:44.229Z,20.43
2018-12-18T01:54:47.523Z,19.90
2018-12-18T01:57:50.797Z,19.97
2018-12-18T02:00:53.987Z,20.63
2018-12-18T02:03:57.230Z,21.60
2018-12-18T02:07:00.552Z,21.70
2018-12-18T02:10:05.510Z,20.80
2018-12-18T02:13:08.821Z,20.10
2018-12-18T02:16:12.019Z,20.03
2018-12-18T02:19:16.940Z,21.60
2018-12-18T02:22:20.163Z,20.23
2018-12-18T02:25:23.467Z,18.53
2018-12-18T02:28:26.915Z,18.53
2018-12-18T02:31:30.234Z,17.97
2018-12-18T02:34:33.505Z,17.63
2018-12-18T02:37:36.768Z,17.23
2018-12-18T02:40:40.016Z,18.33
2018-12-18T02:43:43.353Z,17.37
2018-12-18T02:46:46.692Z,18.90
2018-12-18T02:49:50.106Z,17.33
2018-12-18T02:52:53.524Z,17.37
2018-12-18T02:55:56.886Z,17.07
2018-12-18T02:59:00.224Z,18.67
2018-12-18T03:02:03.514Z,17.83
2018-12-18T03:05:06.910Z,17.90
2018-12-18T03:08:10.133Z,18.83
2018-12-18T03:11:17.604Z,19.87
2018-12-18T03:14:21.352Z,17.97
2018-12-18T03:17:25.091Z,19.77
2018-12-18T03:20:28.407Z,18.90
2018-12-18T03:23:31.637Z,19.73
2018-12-18T03:26:34.845Z,19.83
2018-12-18T03:29:37.993Z,19.73
2018-12-18T03:32:45.549Z,20.57
2018-12-18T03:35:48.806Z,19.77
2018-12-18T03:38:52.025Z,21.30
2018-12-18T03:41:55.687Z,21.27
2018-12-18T03:44:58.980Z,19.80
2018-12-18T03:48:02.132Z,22.40
2018-12-18T03:51:05.466Z,20.17
2018-12-18T03:54:08.685Z,21.03
2018-12-18T03:57:11.896Z,20.20
2018-12-18T04:00:15.095Z,20.43
2018-12-18T04:03:18.370Z,22.47
2018-12-18T04:06:22.070Z,21.20
2018-12-18T04:09:25.310Z,20.53
2018-12-18T04:12:29.783Z,22.03
2018-12-18T04:15:33.006Z,21.67
2018-12-18T04:18:36.188Z,22.13
2018-12-18T04:21:39.471Z,20.90
2018-12-18T04:24:42.722Z,22.50
2018-12-18T04:27:46.621Z,23.00
2018-12-18T04:30:49.858Z,23.87
2018-12-18T04:33:53.092Z,23.77
2018-12-18T04:36:56.284Z,22.57
2018-12-18T04:39:59.499Z,21.13
2018-12-18T04:43:02.916Z,21.40
2018-12-18T04:46:06.378Z,20.27
2018-12-18T04:49:09.572Z,22.60
2018-12-18T04:52:14.217Z,22.70
2018-12-18T04:55:17.585Z,20.20
2018-12-18T04:58:20.884Z,22.90
2018-12-18T05:01:24.095Z,23.30
2018-12-18T05:04:27.397Z,20.47
2018-12-18T05:07:30.598Z,21.57
2018-12-18T05:10:33.882Z,21.67
2018-12-18T05:13:37.092Z,23.23
2018-12-18T05:16:41.650Z,21.50
2018-12-18T05:19:44.824Z,20.60
2018-12-18T05:22:48.065Z,21.70
2018-12-18T05:25:51.342Z,22.23
2018-12-18T05:28:54.620Z,22.07
2018-12-18T05:31:57.870Z,22.87
2018-12-18T05:35:01.496Z,22.03
2018-12-18T05:38:04.783Z,22.50
2018-12-18T05:41:08.017Z,24.27
2018-12-18T05:44:11.393Z,22.90
2018-12-18T05:47:15.153Z,22.23
2018-12-18T05:50:18.407Z,21.97
2018-12-18T05:53:21.705Z,22.33
2018-12-18T05:56:25.079Z,24.33
2018-12-18T05:59:28.373Z,23.70
2018-12-18T06:02:32.390Z,24.90
2018-12-18T06:05:35.575Z,24.10
2018-12-18T06:08:39.369Z,24.57
2018-12-18T06:11:42.586Z,25.37
2018-12-18T06:14:45.835Z,28.27
2018-12-18T06:17:49.929Z,25.80
2018-12-18T06:20:53.442Z,25.13
2018-12-18T06:23:56.662Z,25.37
2018-12-18T06:26:59.868Z,24.47
2018-12-18T06:30:03.285Z,26.53
2018-12-18T06:33:06.522Z,26.90
2018-12-18T06:36:09.802Z,25.17
2018-12-18T06:39:13.004Z,26.93
2018-12-18T06:42:16.364Z,26.97
2018-12-18T06:45:19.623Z,24.73
2018-12-18T06:48:22.889Z,27.03
2018-12-18T06:51:26.214Z,26.73
2018-12-18T06:54:29.734Z,26.53
2018-12-18T06:57:33.019Z,63.53
2018-12-18T07:00:36.314Z,27.07
2018-12-18T07:03:39.672Z,27.77
2018-12-18T07:06:43.182Z,28.83
2018-12-18T07:09:46.502Z,26.43
2018-12-18T07:12:49.659Z,28.73
2018-12-18T07:15:52.858Z,27.70
2018-12-18T07:18:56.051Z,28.03
2018-12-18T07:21:59.467Z,31.53
2018-12-18T07:25:02.791Z,27.50
2018-12-18T07:28:06.807Z,29.63
2018-12-18T07:31:10.064Z,29.27
2018-12-18T07:34:13.345Z,30.57
2018-12-18T07:37:16.644Z,29.13
2018-12-18T07:40:20.001Z,28.07
2018-12-18T07:43:23.794Z,29.03
2018-12-18T07:46:27.114Z,30.07
2018-12-18T07:49:30.348Z,29.50
2018-12-18T07:52:33.543Z,31.53
2018-12-18T07:55:36.731Z,35.10
2018-12-18T07:58:39.944Z,34.67
2018-12-18T08:01:44.570Z,34.83
2018-12-18T08:04:47.878Z,34.50
2018-12-18T08:07:51.081Z,33.80
2018-12-18T08:10:54.338Z,32.40
2018-12-18T08:13:57.556Z,32.73
2018-12-18T08:17:00.847Z,32.80
2018-12-18T08:20:04.435Z,29.53
2018-12-18T08:23:07.942Z,28.37
2018-12-18T08:26:11.340Z,26.80
2018-12-18T08:29:14.590Z,25.00
2018-12-18T08:32:17.886Z,22.20
2018-12-18T08:35:21.154Z,24.67
2018-12-18T08:38:24.310Z,24.30
2018-12-18T08:41:27.516Z,24.60
2018-12-18T08:44:30.755Z,25.63
2018-12-18T08:47:34.102Z,23.93
2018-12-18T08:50:37.322Z,25.43
2018-12-18T08:53:40.498Z,25.27
2018-12-18T08:56:43.801Z,24.67
2018-12-18T08:59:48.213Z,25.77
2018-12-18T09:02:51.383Z,24.37
2018-12-18T09:05:54.582Z,24.47
2018-12-18T09:08:58.746Z,23.07
2018-12-18T09:12:02.259Z,23.20
2018-12-18T09:15:11.757Z,21.43
2018-12-18T09:18:14.944Z,20.47
2018-12-18T09:21:18.156Z,21.63
2018-12-18T09:24:21.471Z,20.47
2018-12-18T09:27:24.731Z,19.87
2018-12-18T09:30:27.930Z,19.50
2018-12-18T09:33:31.140Z,18.53
2018-12-18T09:36:34.406Z,20.27
2018-12-18T09:39:41.804Z,20.70
2018-12-18T09:42:50.443Z,16.67
2018-12-18T09:45:53.647Z,17.67
2018-12-18T09:48:56.837Z,22.03
2018-12-18T09:52:00.022Z,17.67
2018-12-18T09:55:03.537Z,18.10
2018-12-18T09:58:11.110Z,17.87
2018-12-18T10:01:14.540Z,19.23
2018-12-18T10:04:17.821Z,19.80
2018-12-18T10:07:22.382Z,18.17
2018-12-18T10:10:26.834Z,18.37
2018-12-18T10:13:30.156Z,18.93
2018-12-18T10:16:33.481Z,19.37
2018-12-18T10:19:36.757Z,20.33
2018-12-18T10:22:41.598Z,20.17
2018-12-18T10:25:44.905Z,20.43
2018-12-18T10:28:48.197Z,20.83
2018-12-18T10:31:51.432Z,20.53
2018-12-18T10:34:54.583Z,22.27
2018-12-18T10:37:57.786Z,21.87
2018-12-18T10:41:00.977Z,24.10
2018-12-18T10:44:04.293Z,24.27
2018-12-18T10:47:07.597Z,24.73
2018-12-18T10:50:10.941Z,21.87
2018-12-18T10:53:14.685Z,23.07
2018-12-18T10:56:17.989Z,21.40
2018-12-18T10:59:21.629Z,22.90
2018-12-18T11:02:24.882Z,23.47
2018-12-18T11:05:28.118Z,22.83
2018-12-18T11:08:31.367Z,22.30
2018-12-18T11:11:34.673Z,20.10
2018-12-18T11:14:37.971Z,19.67
2018-12-18T11:17:41.283Z,20.20
2018-12-18T11:20:44.531Z,19.40
2018-12-18T11:23:47.757Z,18.17
2018-12-18T11:26:50.959Z,16.57
2018-12-18T11:29:54.243Z,16.27
2018-12-18T11:32:57.451Z,15.77
2018-12-18T11:36:00.633Z,13.20
2018-12-18T11:39:05.327Z,13.43
2018-12-18T11:42:08.651Z,13.03
2018-12-18T11:45:12.474Z,13.60
2018-12-18T11:48:15.768Z,12.50
2018-12-18T11:51:18.939Z,14.53
2018-12-18T11:54:22.258Z,14.20
2018-12-18T11:57:27.175Z,14.23
2018-12-18T12:00:30.379Z,13.67
2018-12-18T12:03:34.291Z,13.80
2018-12-18T12:06:37.596Z,13.37
2018-12-18T12:09:40.791Z,13.77
2018-12-18T12:12:45.555Z,13.67
2018-12-18T12:15:48.968Z,12.67
2018-12-18T12:18:52.175Z,15.03
2018-12-18T12:21:55.348Z,14.90
2018-12-18T12:24:58.622Z,15.03
2018-12-18T12:28:06.278Z,14.27
2018-12-18T12:31:09.531Z,16.77
2018-12-18T12:34:12.815Z,16.90
2018-12-18T12:37:16.083Z,16.97
2018-12-18T12:40:19.383Z,17.33
2018-12-18T12:43:22.613Z,16.50
2018-12-18T12:46:25.903Z,16.67
2018-12-18T12:49:35.290Z,19.40
2018-12-18T12:52:38.573Z,19.03
2018-12-18T12:55:41.817Z,18.23
2018-12-18T12:58:45.000Z,18.73
2018-12-18T13:01:48.277Z,18.87
2018-12-18T13:04:52.243Z,19.33
2018-12-18T13:07:56.206Z,19.57
2018-12-18T13:10:59.634Z,18.33
2018-12-18T13:14:03.034Z,17.80
2018-12-18T13:17:07.236Z,18.97
2018-12-18T13:20:10.517Z,18.70
2018-12-18T13:23:13.843Z,21.07
2018-12-18T13:26:18.081Z,20.10
2018-12-18T13:29:21.668Z,19.83
2018-12-18T13:32:25.103Z,19.20
2018-12-18T13:35:28.359Z,17.90
2018-12-18T13:38:31.669Z,16.97
2018-12-18T13:41:35.852Z,17.47
2018-12-18T13:44:39.101Z,17.80
2018-12-18T13:47:42.263Z,16.93
2018-12-18T13:50:45.490Z,16.00
2018-12-18T13:53:48.891Z,19.97
2018-12-18T13:56:52.444Z,15.80
2018-12-18T13:59:55.729Z,16.63
2018-12-18T14:02:59.577Z,15.87
2018-12-18T14:06:03.725Z,14.83
2018-12-18T14:09:09.233Z,16.17
2018-12-18T14:12:12.465Z,15.50
2018-12-18T14:15:16.912Z,17.30
2018-12-18T14:18:20.183Z,16.17
2018-12-18T14:21:23.610Z,16.10
2018-12-18T14:24:26.862Z,15.13
2018-12-18T14:27:31.077Z,17.30
2018-12-18T14:30:34.399Z,15.73
2018-12-18T14:33:37.670Z,16.40
2018-12-18T14:36:40.858Z,17.20
2018-12-18T14:39:44.134Z,17.90
2018-12-18T14:42:47.719Z,17.20
2018-12-18T14:45:50.993Z,16.03
2018-12-18T14:48:54.185Z,16.10
2018-12-18T14:51:57.445Z,17.07
2018-12-18T14:55:00.664Z,17.00
2018-12-18T14:58:05.480Z,17.93
2018-12-18T15:01:08.695Z,18.83
2018-12-18T15:04:11.956Z,18.17
2018-12-18T15:07:15.189Z,17.83
2018-12-18T15:10:19.299Z,17.00
2018-12-18T15:13:22.590Z,18.77
2018-12-18T15:16:25.974Z,19.23
2018-12-18T15:19:29.200Z,17.67
2018-12-18T15:22:32.703Z,19.17
2018-12-18T15:25:35.952Z,18.43
2018-12-18T15:28:39.160Z,17.63
2018-12-18T15:31:42.349Z,17.37
2018-12-18T15:34:45.545Z,18.30
2018-12-18T15:37:48.837Z,19.80
2018-12-18T15:40:52.157Z,19.33
2018-12-18T15:43:55.470Z,19.83
2018-12-18T15:46:59.576Z,19.47
2018-12-18T15:50:02.785Z,18.77
2018-12-18T15:53:05.961Z,19.10
2018-12-18T15:56:09.144Z,20.10
2018-12-18T15:59:12.333Z,19.13
2018-12-18T16:02:15.558Z,18.93
2018-12-18T16:05:19.974Z,19.33
2018-12-18T16:08:23.336Z,19.40
2018-12-18T16:11:26.553Z,20.10
2018-12-18T16:14:29.762Z,19.77
2018-12-18T16:17:32.986Z,20.70
2018-12-18T16:20:36.260Z,19.43
2018-12-18T16:23:39.513Z,20.30
2018-12-18T16:26:42.685Z,18.47
2018-12-18T16:29:47.593Z,21.17
2018-12-18T16:32:50.957Z,18.87
2018-12-18T16:35:54.202Z,21.60
2018-12-18T16:38:57.464Z,21.77
2018-12-18T16:42:00.874Z,20.67
2018-12-18T16:45:04.423Z,22.70
2018-12-18T16:48:07.754Z,19.93
2018-12-18T16:51:10.957Z,21.27
2018-12-18T16:54:14.449Z,21.47
2018-12-18T16:57:17.663Z,21.37
2018-12-18T17:00:20.962Z,22.27
2018-12-18T17:03:24.189Z,22.70
2018-12-18T17:06:27.657Z,22.53
2018-12-18T17:09:30.863Z,24.67
2018-12-18T17:12:34.250Z,25.23
2018-12-18T17:15:37.550Z,24.77
2018-12-18T17:18:40.737Z,25.93
2018-12-18T17:21:45.779Z,25.47
2018-12-18T17:24:49.020Z,26.30
2018-12-18T17:27:52.260Z,25.57
2018-12-18T17:30:55.484Z,27.30
2018-12-18T17:34:00.201Z,25.47
2018-12-18T17:37:03.583Z,25.73
2018-12-18T17:40:08.754Z,26.13
2018-12-18T17:43:12.124Z,26.33
2018-12-18T17:46:15.326Z,25.33
2018-12-18T17:49:18.760Z,25.57
2018-12-18T17:52:22.152Z,24.97
2018-12-18T17:55:25.455Z,25.80
2018-12-18T17:58:28.703Z,27.50
2018-12-18T18:01:31.930Z,27.00
2018-12-18T18:04:36.865Z,27.43
2018-12-18T18:07:43.056Z,27.57
2018-12-18T18:10:47.264Z,27.73
2018-12-18T18:13:50.529Z,27.73
2018-12-18T18:16:54.035Z,27.03
2018-12-18T18:19:59.116Z,26.37
2018-12-18T18:23:02.379Z,27.93
2018-12-18T18:26:05.777Z,26.10
2018-12-18T18:29:09.041Z,24.27
2018-12-18T18:32:12.363Z,26.93
2018-12-18T18:35:17.590Z,26.60
2018-12-18T18:38:20.927Z,27.80
2018-12-18T18:41:24.299Z,28.87
2018-12-18T18:44:27.615Z,27.53
2018-12-18T18:47:31.292Z,29.63
2018-12-18T18:50:35.963Z,25.87
2018-12-18T18:53:40.152Z,26.47
2018-12-18T18:56:43.442Z,27.60
2018-12-18T18:59:46.643Z,26.80
2018-12-18T19:02:49.882Z,27.07
2018-12-18T19:05:53.147Z,27.77
2018-12-18T19:08:56.326Z,27.13
2018-12-18T19:12:01.516Z,25.30
2018-12-18T19:15:05.276Z,24.77
2018-12-18T19:18:08.603Z,26.53
2018-12-18T19:21:11.816Z,23.67
2018-12-18T19:24:15.062Z,23.00
2018-12-18T19:27:18.460Z,23.07
2018-12-18T19:30:21.815Z,22.67
2018-12-18T19:33:25.207Z,21.40
2018-12-18T19:36:28.698Z,22.20
2018-12-18T19:39:32.015Z,22.07
2018-12-18T19:42:35.685Z,19.63
2018-12-18T19:45:39.059Z,19.10
2018-12-18T19:48:42.683Z,20.50
2018-12-18T19:51:46.155Z,21.07
2018-12-18T19:54:49.499Z,20.67
2018-12-18T19:57:52.821Z,19.47
2018-12-18T20:00:56.156Z,20.43
2018-12-18T20:03:59.488Z,19.13
2018-12-18T20:07:02.825Z,18.27
2018-12-18T20:10:06.959Z,18.17
2018-12-18T20:13:10.986Z,17.43
2018-12-18T20:16:15.675Z,17.70
2018-12-18T20:19:18.940Z,16.33
2018-12-18T20:22:24.337Z,15.30
2018-12-18T20:25:28.768Z,15.77
2018-12-18T20:28:32.476Z,15.37
2018-12-18T20:31:35.855Z,16.63
2018-12-18T20:34:39.253Z,15.67
2018-12-18T20:37:42.771Z,16.10
2018-12-18T20:40:46.142Z,17.10
2018-12-18T20:43:49.956Z,15.50
2018-12-18T20:46:53.245Z,16.83
2018-12-18T20:49:57.204Z,17.00
2018-12-18T20:53:00.735Z,15.93
2018-12-18T20:56:05.225Z,15.43
2018-12-18T20:59:08.565Z,15.33
2018-12-18T21:02:11.859Z,17.27
2018-12-18T21:05:15.460Z,15.13
2018-12-18T21:08:23.370Z,15.47
2018-12-18T21:11:24.175Z,16.43
2018-12-18T21:14:27.434Z,15.90
2018-12-18T21:17:30.674Z,15.30
2018-12-18T21:20:34.155Z,16.23
2018-12-18T21:23:37.491Z,14.80
2018-12-18T21:26:40.961Z,17.13
2018-12-18T21:29:44.253Z,16.07
2018-12-18T21:32:47.586Z,14.83
2018-12-18T21:35:50.861Z,15.43
2018-12-18T21:38:54.473Z,14.60
2018-12-18T21:41:57.874Z,15.43
2018-12-18T21:45:01.551Z,14.80
2018-12-18T21:48:04.960Z,15.73
2018-12-18T21:51:08.361Z,15.30
2018-12-18T21:54:11.663Z,14.33
2018-12-18T21:57:15.024Z,14.07
2018-12-18T22:00:18.762Z,14.73
2018-12-18T22:03:21.980Z,14.13
2018-12-18T22:06:25.143Z,14.10
2018-12-18T22:09:28.345Z,15.17
2018-12-18T22:12:31.723Z,13.60
2018-12-18T22:15:34.982Z,12.40
2018-12-18T22:18:38.175Z,14.80
2018-12-18T22:21:41.637Z,14.33
2018-12-18T22:24:44.939Z,15.10
2018-12-18T22:27:48.741Z,15.03
2018-12-18T22:30:52.042Z,14.63
2018-12-18T22:33:55.540Z,16.00
2018-12-18T22:36:59.332Z,15.27
2018-12-18T22:40:02.743Z,15.30
2018-12-18T22:43:06.252Z,14.40
2018-12-18T22:46:09.526Z,15.13
2018-12-18T22:49:12.830Z,15.40
2018-12-18T22:52:16.164Z,15.50
2018-12-18T22:55:19.334Z,15.20
2018-12-18T22:58:22.628Z,15.30
2018-12-18T23:01:31.051Z,15.40
2018-12-18T23:04:35.419Z,15.80
2018-12-18T23:07:38.652Z,17.17
2018-12-18T23:10:41.880Z,16.80
2018-12-18T23:13:45.126Z,16.13
2018-12-18T23:16:48.368Z,17.33
2018-12-18T23:19:51.763Z,16.67
2018-12-18T23:22:54.963Z,18.70
2018-12-18T23:25:58.148Z,16.93
2018-12-18T23:29:01.518Z,18.60
2018-12-18T23:32:04.722Z,18.07
2018-12-18T23:35:08.032Z,18.80
2018-12-18T23:38:11.324Z,16.80
2018-12-18T23:41:14.786Z,18.00
2018-12-18T23:44:18.028Z,19.60
2018-12-18T23:47:21.224Z,19.60
2018-12-18T23:50:24.536Z,19.80
2018-12-18T23:53:27.884Z,17.97
2018-12-18T23:56:31.140Z,19.27
2018-12-18T23:59:34.321Z,19.70
